TAF KLND
KLND 270520Z 2706/2806 VRB05KT P6SM FEW150=
METAR KLND
WC KLND
WS KLND
WV KLND